Pismo Beach, California
Current Conditions -  °F | °C
As of 1:56 AM on Friday 31 Oct 2014 (Local Time) from KSBP Reporting Station
Overcast Overcast  
Wind Chill: 17°   Ceiling: 1700
Heat Index: 17°   Visibility: 10mi
Dew Point: 13°   Wind: 5mph
Humidity: 80%   Direction: 110°ESE
Pressure: 29.95"   Gusts: NA
Location:  35.16°N, 120.66°W
Report Text: KSBP 310856Z AUTO 11004KT 10SM BKN017 BKN023 OVC030 17/13 A2995 RMK AO2 SLP142 T01670133 50002
Loading
Personal Weather Stations






























Interactive Weather Map
Tropical Storm Tracking
New forecast layout! Learn more

10-Day Weather Forecast

Advertisements
Track Severe Weather on mobile